createdAt,value
2023-04-24T00:00:24.205Z,60.33
2023-04-24T00:01:20.847Z,59.71
2023-04-24T00:02:17.774Z,59.25
2023-04-24T00:03:15.212Z,59.88
2023-04-24T00:04:12.369Z,60.31
2023-04-24T00:05:10.074Z,59.49
2023-04-24T00:06:09.057Z,59.77
2023-04-24T00:07:07.792Z,60.85
2023-04-24T00:08:04.425Z,60.97
2023-04-24T00:09:01.979Z,61.38
2023-04-24T00:09:59.012Z,61.24
2023-04-24T00:10:55.748Z,62.05
2023-04-24T00:11:52.555Z,60.83
2023-04-24T00:12:49.396Z,60.81
2023-04-24T00:13:46.148Z,60.88
2023-04-24T00:14:42.934Z,60.34
2023-04-24T00:15:39.582Z,60.34
2023-04-24T00:16:36.334Z,61.14
2023-04-24T00:17:33.201Z,60.45
2023-04-24T00:18:30.248Z,61.45
2023-04-24T00:19:26.851Z,62.01
2023-04-24T00:20:23.692Z,61.98
2023-04-24T00:21:20.598Z,62.55
2023-04-24T00:22:17.218Z,62.90
2023-04-24T00:23:14.065Z,62.28
2023-04-24T00:24:10.775Z,63.23
2023-04-24T00:25:07.960Z,61.57
2023-04-24T00:26:04.604Z,59.94
2023-04-24T00:27:02.068Z,59.92
2023-04-24T00:27:58.694Z,59.23
2023-04-24T00:28:55.305Z,59.48
2023-04-24T00:29:51.980Z,59.96
2023-04-24T00:30:48.678Z,61.16
2023-04-24T00:31:45.403Z,59.98
2023-04-24T00:32:42.118Z,59.39
2023-04-24T00:33:38.900Z,59.65
2023-04-24T00:34:35.501Z,60.77
2023-04-24T00:35:32.150Z,61.76
2023-04-24T00:36:29.144Z,62.18
2023-04-24T00:37:26.347Z,60.55
2023-04-24T00:38:23.312Z,60.58
2023-04-24T00:39:20.695Z,60.07
2023-04-24T00:40:17.326Z,61.60
2023-04-24T00:41:13.955Z,61.01
2023-04-24T00:42:11.037Z,61.13
2023-04-24T00:43:10.000Z,61.50
2023-04-24T00:44:07.190Z,60.10
2023-04-24T00:45:04.432Z,61.41
2023-04-24T00:46:02.835Z,61.10
2023-04-24T00:47:00.184Z,61.04
2023-04-24T00:47:57.193Z,63.07
2023-04-24T00:48:53.891Z,61.14
2023-04-24T00:49:50.520Z,59.71
2023-04-24T00:50:47.093Z,60.46
2023-04-24T00:51:46.547Z,60.91
2023-04-24T00:52:43.336Z,60.67
2023-04-24T00:53:40.146Z,60.37
2023-04-24T00:54:37.237Z,61.28
2023-04-24T00:55:33.864Z,60.76
2023-04-24T00:56:30.981Z,61.31
2023-04-24T00:57:27.768Z,60.80
2023-04-24T00:58:25.523Z,60.53
2023-04-24T00:59:22.180Z,61.92
2023-04-24T01:00:19.265Z,63.11
2023-04-24T01:01:15.992Z,62.82
2023-04-24T01:02:13.860Z,62.03
2023-04-24T01:03:12.132Z,62.38
2023-04-24T01:04:11.116Z,61.50
2023-04-24T01:05:09.317Z,62.55
2023-04-24T01:06:06.623Z,62.37
2023-04-24T01:07:03.359Z,63.27
2023-04-24T01:08:00.615Z,63.14
2023-04-24T01:08:57.216Z,62.85
2023-04-24T01:09:54.106Z,62.29
2023-04-24T01:10:53.278Z,64.04
2023-04-24T01:11:51.214Z,64.95
2023-04-24T01:12:47.872Z,64.04
2023-04-24T01:13:44.604Z,64.11
2023-04-24T01:14:41.321Z,63.94
2023-04-24T01:15:37.969Z,63.50
2023-04-24T01:16:34.718Z,62.76
2023-04-24T01:17:32.337Z,64.04
2023-04-24T01:18:29.247Z,64.32
2023-04-24T01:19:25.867Z,63.89
2023-04-24T01:20:23.558Z,63.12
2023-04-24T01:21:22.186Z,63.80
2023-04-24T01:22:18.817Z,63.11
2023-04-24T01:23:16.253Z,62.73
2023-04-24T01:24:13.121Z,63.14
2023-04-24T01:25:09.883Z,63.34
2023-04-24T01:26:06.583Z,62.29
2023-04-24T01:27:03.265Z,62.57
2023-04-24T01:28:00.827Z,63.22
2023-04-24T01:28:57.549Z,62.20
2023-04-24T01:29:54.631Z,63.33
2023-04-24T01:30:51.327Z,62.30
2023-04-24T01:31:48.507Z,63.47
2023-04-24T01:32:46.358Z,63.62
2023-04-24T01:33:44.141Z,62.46
2023-04-24T01:34:42.279Z,63.05
2023-04-24T01:35:39.125Z,64.39
2023-04-24T01:36:36.370Z,63.39
2023-04-24T01:37:34.189Z,62.88
2023-04-24T01:38:32.263Z,63.38
2023-04-24T01:39:29.694Z,62.99
2023-04-24T01:40:26.401Z,63.72
2023-04-24T01:41:24.536Z,64.32
2023-04-24T01:42:21.289Z,63.31
2023-04-24T01:43:18.128Z,62.44
2023-04-24T01:44:15.275Z,62.84
2023-04-24T01:45:14.029Z,62.21
2023-04-24T01:46:10.982Z,61.25
2023-04-24T01:47:08.019Z,61.19
2023-04-24T01:48:04.901Z,61.36
2023-04-24T01:49:01.676Z,61.85
2023-04-24T01:49:58.880Z,62.14
2023-04-24T01:50:56.651Z,62.22
2023-04-24T01:51:53.553Z,62.35
2023-04-24T01:52:50.190Z,61.13
2023-04-24T01:53:46.869Z,63.29
2023-04-24T01:54:43.443Z,63.37
2023-04-24T01:55:40.217Z,61.95
2023-04-24T01:56:40.537Z,62.50
2023-04-24T01:57:37.202Z,63.35
2023-04-24T01:58:33.846Z,62.08
2023-04-24T01:59:32.062Z,61.38
2023-04-24T02:00:28.666Z,61.09
2023-04-24T02:01:25.796Z,60.10
2023-04-24T02:02:24.993Z,61.42
2023-04-24T02:03:21.887Z,61.67
2023-04-24T02:04:18.743Z,61.92
2023-04-24T02:05:16.102Z,61.72
2023-04-24T02:06:12.786Z,62.67
2023-04-24T02:07:09.358Z,63.74
2023-04-24T02:08:05.916Z,64.10
2023-04-24T02:09:04.032Z,63.47
2023-04-24T02:10:00.859Z,61.95
2023-04-24T02:10:57.483Z,62.66
2023-04-24T02:11:54.050Z,63.02
2023-04-24T02:12:50.739Z,63.28
2023-04-24T02:13:47.331Z,63.55
2023-04-24T02:14:44.691Z,63.15
2023-04-24T02:15:41.327Z,63.09
2023-04-24T02:16:37.949Z,63.25
2023-04-24T02:17:34.605Z,63.68
2023-04-24T02:18:31.290Z,63.61
2023-04-24T02:19:27.933Z,64.80
2023-04-24T02:20:24.839Z,63.56
2023-04-24T02:21:21.415Z,62.58
2023-04-24T02:22:18.191Z,63.39
2023-04-24T02:23:14.875Z,62.97
2023-04-24T02:24:11.510Z,62.32
2023-04-24T02:25:09.083Z,62.43
2023-04-24T02:26:06.794Z,61.14
2023-04-24T02:27:03.921Z,61.91
2023-04-24T02:28:00.555Z,61.93
2023-04-24T02:28:57.154Z,61.94
2023-04-24T02:29:53.770Z,61.87
2023-04-24T02:30:51.572Z,62.15
2023-04-24T02:31:48.161Z,62.83
2023-04-24T02:32:44.950Z,63.21
2023-04-24T02:33:41.865Z,62.94
2023-04-24T02:34:38.962Z,63.50
2023-04-24T02:35:35.797Z,63.75
2023-04-24T02:36:32.891Z,64.04
2023-04-24T02:37:29.577Z,64.17
2023-04-24T02:38:26.172Z,64.06
2023-04-24T02:39:22.979Z,64.72
2023-04-24T02:40:19.588Z,63.76
2023-04-24T02:41:16.202Z,63.42
2023-04-24T02:42:12.793Z,62.45
2023-04-24T02:43:09.552Z,62.26
2023-04-24T02:44:06.175Z,63.44
2023-04-24T02:45:02.790Z,64.69
2023-04-24T02:45:59.503Z,65.52
2023-04-24T02:46:56.187Z,65.88
2023-04-24T02:47:52.837Z,66.13
2023-04-24T02:48:49.510Z,66.36
2023-04-24T02:49:46.115Z,66.19
2023-04-24T02:50:42.747Z,65.83
2023-04-24T02:51:42.150Z,65.55
2023-04-24T02:52:38.826Z,66.09
2023-04-24T02:53:35.546Z,66.86
2023-04-24T02:54:32.216Z,65.94
2023-04-24T02:55:29.101Z,63.13
2023-04-24T02:56:26.039Z,62.55
2023-04-24T02:57:22.668Z,62.21
2023-04-24T02:58:21.091Z,62.44
2023-04-24T02:59:17.867Z,62.72
2023-04-24T03:00:14.738Z,63.25
2023-04-24T03:01:11.609Z,63.90
2023-04-24T03:02:08.562Z,63.75
2023-04-24T03:03:05.562Z,65.09
2023-04-24T03:04:02.818Z,67.25
2023-04-24T03:05:00.844Z,67.99
2023-04-24T03:05:58.129Z,68.13
2023-04-24T03:06:55.869Z,68.92
2023-04-24T03:07:53.757Z,69.68
2023-04-24T03:08:50.453Z,69.28
2023-04-24T03:09:47.282Z,70.10
2023-04-24T03:10:45.263Z,70.32
2023-04-24T03:11:42.834Z,71.39
2023-04-24T03:12:39.413Z,70.37
2023-04-24T03:13:36.089Z,70.38
2023-04-24T03:14:32.778Z,70.50
2023-04-24T03:15:29.443Z,71.65
2023-04-24T03:16:26.453Z,71.92
2023-04-24T03:17:23.128Z,71.62
2023-04-24T03:18:19.851Z,71.30
2023-04-24T03:19:16.698Z,71.30
2023-04-24T03:20:13.424Z,70.97
2023-04-24T03:21:10.047Z,69.97
2023-04-24T03:22:06.598Z,69.87
2023-04-24T03:23:03.173Z,70.46
2023-04-24T03:23:59.957Z,70.36
2023-04-24T03:24:57.716Z,69.24
2023-04-24T03:25:55.808Z,69.22
2023-04-24T03:26:52.732Z,70.02
2023-04-24T03:27:49.432Z,71.71
2023-04-24T03:28:46.007Z,71.88
2023-04-24T03:29:42.838Z,71.09
2023-04-24T03:30:39.614Z,72.20
2023-04-24T03:31:36.209Z,72.58
2023-04-24T03:32:33.395Z,71.97
2023-04-24T03:33:30.390Z,71.43
2023-04-24T03:34:27.050Z,72.40
2023-04-24T03:35:23.864Z,73.30
2023-04-24T03:36:20.624Z,72.95
2023-04-24T03:37:18.102Z,73.22
2023-04-24T03:38:14.665Z,74.35
2023-04-24T03:39:11.280Z,74.60
2023-04-24T03:40:09.211Z,73.42
2023-04-24T03:41:05.816Z,71.43
2023-04-24T03:42:02.412Z,69.83
2023-04-24T03:42:59.017Z,69.38
2023-04-24T03:43:55.798Z,69.87
2023-04-24T03:44:52.409Z,71.30
2023-04-24T03:45:49.146Z,71.91
2023-04-24T03:46:45.755Z,72.07
2023-04-24T03:47:42.435Z,71.52
2023-04-24T03:48:39.129Z,72.35
2023-04-24T03:49:35.768Z,72.48
2023-04-24T03:50:32.344Z,71.46
2023-04-24T03:51:29.049Z,72.46
2023-04-24T03:52:25.599Z,72.49
2023-04-24T03:53:22.239Z,72.31
2023-04-24T03:54:19.401Z,71.22
2023-04-24T03:55:16.487Z,71.62
2023-04-24T03:56:13.104Z,71.49
2023-04-24T03:57:09.700Z,72.63
2023-04-24T03:58:06.986Z,71.95
2023-04-24T03:59:03.611Z,72.70
2023-04-24T04:00:00.991Z,72.42
2023-04-24T04:00:59.182Z,71.43
2023-04-24T04:01:56.021Z,71.54
2023-04-24T04:02:52.660Z,71.67
2023-04-24T04:03:49.463Z,71.61
2023-04-24T04:04:46.650Z,72.83
2023-04-24T04:05:43.603Z,71.99
2023-04-24T04:06:40.251Z,71.89
2023-04-24T04:07:36.758Z,73.34
2023-04-24T04:08:33.355Z,73.73
2023-04-24T04:09:30.476Z,72.16
2023-04-24T04:10:27.066Z,72.74
2023-04-24T04:11:23.818Z,72.07
2023-04-24T04:12:20.646Z,70.37
2023-04-24T04:13:17.257Z,69.18
2023-04-24T04:14:13.870Z,69.31
2023-04-24T04:15:10.881Z,68.52
2023-04-24T04:16:07.554Z,67.48
2023-04-24T04:17:04.161Z,66.96
2023-04-24T04:18:00.810Z,63.86
2023-04-24T04:18:57.651Z,63.43
2023-04-24T04:19:54.246Z,63.18
2023-04-24T04:20:50.793Z,64.99
2023-04-24T04:21:51.729Z,65.09
2023-04-24T04:22:48.402Z,65.69
2023-04-24T04:23:45.008Z,66.49
2023-04-24T04:24:41.699Z,66.24
2023-04-24T04:25:38.289Z,68.49
2023-04-24T04:26:36.504Z,68.15
2023-04-24T04:27:33.389Z,67.09
2023-04-24T04:28:33.852Z,66.06
2023-04-24T04:29:30.523Z,63.19
2023-04-24T04:30:27.199Z,62.31
2023-04-24T04:31:24.444Z,62.43
2023-04-24T04:32:21.110Z,64.31
2023-04-24T04:33:18.218Z,65.31
2023-04-24T04:34:15.314Z,65.32
2023-04-24T04:35:12.043Z,64.90
2023-04-24T04:36:09.690Z,65.09
2023-04-24T04:37:07.025Z,66.21
2023-04-24T04:38:03.611Z,67.62
2023-04-24T04:39:00.470Z,64.51
2023-04-24T04:39:57.062Z,63.86
2023-04-24T04:40:53.631Z,64.90
2023-04-24T04:41:50.225Z,62.92
2023-04-24T04:42:47.046Z,62.63
2023-04-24T04:43:44.082Z,61.88
2023-04-24T04:44:40.943Z,60.58
2023-04-24T04:45:39.831Z,60.54
2023-04-24T04:46:38.197Z,60.93
2023-04-24T04:47:35.161Z,61.08
2023-04-24T04:48:32.654Z,60.54
2023-04-24T04:49:31.739Z,60.31
2023-04-24T04:50:28.634Z,60.44
2023-04-24T04:51:25.312Z,61.30
2023-04-24T04:52:25.969Z,60.21
2023-04-24T04:53:22.615Z,60.62
2023-04-24T04:54:19.316Z,60.27
2023-04-24T04:55:15.954Z,62.65
2023-04-24T04:56:12.666Z,64.69
2023-04-24T04:57:10.046Z,63.52
2023-04-24T04:58:06.761Z,64.82
2023-04-24T04:59:03.338Z,63.37
2023-04-24T04:59:59.966Z,63.57
2023-04-24T05:00:58.397Z,62.14
2023-04-24T05:01:55.104Z,59.93
2023-04-24T05:02:52.449Z,59.91
2023-04-24T05:03:49.368Z,61.77
2023-04-24T05:04:46.338Z,64.72
2023-04-24T05:05:43.468Z,65.16
2023-04-24T05:06:40.176Z,65.16
2023-04-24T05:07:36.911Z,65.93
2023-04-24T05:08:33.517Z,61.63
2023-04-24T05:09:30.676Z,60.36
2023-04-24T05:10:27.401Z,60.15
2023-04-24T05:11:24.397Z,60.81
2023-04-24T05:12:21.033Z,62.36
2023-04-24T05:13:20.768Z,62.08
2023-04-24T05:14:20.117Z,58.32
2023-04-24T05:15:16.727Z,58.00
2023-04-24T05:16:13.277Z,58.31
2023-04-24T05:17:09.959Z,60.87
2023-04-24T05:18:06.686Z,61.64
2023-04-24T05:19:03.786Z,62.00
2023-04-24T05:20:00.473Z,62.53
2023-04-24T05:20:57.125Z,62.05
2023-04-24T05:21:53.764Z,61.43
2023-04-24T05:22:50.456Z,60.60
2023-04-24T05:23:47.111Z,59.95
2023-04-24T05:24:43.678Z,60.16
2023-04-24T05:25:41.492Z,61.18
2023-04-24T05:26:38.176Z,61.27
2023-04-24T05:27:34.888Z,61.08
2023-04-24T05:28:31.624Z,62.07
2023-04-24T05:29:28.309Z,60.28
2023-04-24T05:30:25.078Z,58.82
2023-04-24T05:31:22.173Z,59.69
2023-04-24T05:32:18.796Z,59.99
2023-04-24T05:33:15.592Z,59.03
2023-04-24T05:34:12.281Z,60.15
2023-04-24T05:35:09.153Z,60.04
2023-04-24T05:36:07.567Z,59.44
2023-04-24T05:37:04.786Z,59.75
2023-04-24T05:38:01.413Z,58.67
2023-04-24T05:38:58.029Z,58.96
2023-04-24T05:39:54.608Z,59.46
2023-04-24T05:40:51.158Z,58.68
2023-04-24T05:41:47.756Z,58.33
2023-04-24T05:42:44.388Z,58.17
2023-04-24T05:43:41.018Z,56.88
2023-04-24T05:44:37.650Z,57.57
2023-04-24T05:45:36.955Z,57.50
2023-04-24T05:46:33.638Z,59.80
2023-04-24T05:47:31.028Z,59.83
2023-04-24T05:48:27.783Z,60.35
2023-04-24T05:49:24.471Z,59.41
2023-04-24T05:50:21.146Z,59.15
2023-04-24T05:51:17.819Z,59.85
2023-04-24T05:52:14.621Z,58.72
2023-04-24T05:53:11.774Z,58.69
2023-04-24T05:54:08.416Z,59.40
2023-04-24T05:55:05.497Z,59.88
2023-04-24T05:56:02.274Z,59.67
2023-04-24T05:56:59.363Z,60.37
2023-04-24T05:57:56.092Z,60.07
2023-04-24T05:58:52.738Z,59.86
2023-04-24T05:59:49.692Z,60.06
2023-04-24T06:00:47.768Z,60.60
2023-04-24T06:01:44.498Z,60.41
2023-04-24T06:02:41.437Z,60.92
2023-04-24T06:03:40.420Z,60.39
2023-04-24T06:04:37.293Z,60.79
2023-04-24T06:05:34.046Z,60.34
2023-04-24T06:06:30.723Z,58.28
2023-04-24T06:07:27.666Z,57.87
2023-04-24T06:08:24.348Z,58.05
2023-04-24T06:09:20.888Z,58.13
2023-04-24T06:10:17.598Z,59.22
2023-04-24T06:11:14.364Z,58.73
2023-04-24T06:12:11.048Z,58.88
2023-04-24T06:13:07.711Z,57.37
2023-04-24T06:14:04.303Z,57.15
2023-04-24T06:15:01.356Z,57.32
2023-04-24T06:15:58.015Z,57.76
2023-04-24T06:16:55.017Z,56.94
2023-04-24T06:17:51.788Z,55.60
2023-04-24T06:18:48.560Z,56.46
2023-04-24T06:19:45.535Z,57.10
2023-04-24T06:20:42.840Z,56.22
2023-04-24T06:21:39.491Z,56.44
2023-04-24T06:22:36.558Z,54.88
2023-04-24T06:23:34.071Z,55.41
2023-04-24T06:24:31.894Z,55.89
2023-04-24T06:25:28.937Z,56.68
2023-04-24T06:26:28.506Z,55.72
2023-04-24T06:27:25.090Z,56.40
2023-04-24T06:28:21.791Z,57.28
2023-04-24T06:29:18.417Z,57.67
2023-04-24T06:30:15.052Z,57.64
2023-04-24T06:31:11.689Z,57.30
2023-04-24T06:32:08.912Z,57.45
2023-04-24T06:33:18.856Z,58.01
2023-04-24T06:34:17.331Z,56.85
2023-04-24T06:35:13.904Z,55.69
2023-04-24T06:36:10.680Z,55.32
2023-04-24T06:37:07.627Z,54.31
2023-04-24T06:38:04.347Z,54.25
2023-04-24T06:39:01.237Z,54.68
2023-04-24T06:39:57.855Z,55.83
2023-04-24T06:40:54.448Z,55.65
2023-04-24T06:41:51.086Z,55.75
2023-04-24T06:42:47.738Z,55.57
2023-04-24T06:43:44.724Z,55.44
2023-04-24T06:44:44.499Z,55.68
2023-04-24T06:45:41.367Z,55.07
2023-04-24T06:46:39.247Z,54.46
2023-04-24T06:47:37.740Z,55.04
2023-04-24T06:48:34.319Z,53.58
2023-04-24T06:49:31.097Z,53.61
2023-04-24T06:50:27.769Z,54.12
2023-04-24T06:51:25.145Z,53.88
2023-04-24T06:52:22.193Z,52.13
2023-04-24T06:53:18.886Z,52.52
2023-04-24T06:54:15.455Z,53.15
2023-04-24T06:55:12.290Z,54.96
2023-04-24T06:56:09.170Z,54.15
2023-04-24T06:57:05.825Z,55.27
2023-04-24T06:58:02.691Z,55.11
2023-04-24T06:58:59.249Z,55.48
2023-04-24T06:59:56.018Z,55.06
2023-04-24T07:00:52.694Z,55.33
2023-04-24T07:01:49.454Z,55.86
2023-04-24T07:02:46.171Z,56.25
2023-04-24T07:03:43.198Z,56.70
2023-04-24T07:04:40.120Z,57.59
2023-04-24T07:05:38.088Z,57.58
2023-04-24T07:06:36.920Z,57.39
2023-04-24T07:07:33.646Z,57.57
2023-04-24T07:08:31.685Z,57.65
2023-04-24T07:09:28.321Z,60.03
2023-04-24T07:10:25.553Z,59.18
2023-04-24T07:11:23.230Z,57.69
2023-04-24T07:12:21.617Z,58.05
2023-04-24T07:13:18.545Z,58.20
2023-04-24T07:14:15.301Z,58.44
2023-04-24T07:15:11.963Z,56.67
2023-04-24T07:16:09.809Z,57.21
2023-04-24T07:17:07.264Z,57.90
2023-04-24T07:18:05.785Z,55.55
2023-04-24T07:19:02.745Z,55.93
2023-04-24T07:19:59.407Z,55.92
2023-04-24T07:20:56.345Z,55.94
2023-04-24T07:21:53.743Z,54.77
2023-04-24T07:22:50.544Z,53.60
2023-04-24T07:23:47.111Z,55.50
2023-04-24T07:24:45.141Z,55.61
2023-04-24T07:25:41.823Z,56.92
2023-04-24T07:26:40.156Z,56.18
2023-04-24T07:27:37.304Z,55.62
2023-04-24T07:28:34.050Z,54.98
2023-04-24T07:29:30.970Z,54.71
2023-04-24T07:30:30.510Z,54.59
2023-04-24T07:31:27.232Z,53.68
2023-04-24T07:32:23.914Z,55.24
2023-04-24T07:33:20.673Z,54.34
2023-04-24T07:34:17.431Z,52.57
2023-04-24T07:35:14.111Z,53.81
2023-04-24T07:36:16.524Z,53.06
2023-04-24T07:37:13.268Z,53.84
2023-04-24T07:38:09.895Z,53.45
2023-04-24T07:39:07.094Z,53.51
2023-04-24T07:40:04.817Z,51.49
2023-04-24T07:41:01.422Z,51.74
2023-04-24T07:41:59.690Z,51.89
2023-04-24T07:42:56.334Z,49.94
2023-04-24T07:43:54.707Z,50.19
2023-04-24T07:44:52.198Z,50.07
2023-04-24T07:45:49.184Z,48.60
2023-04-24T07:46:45.976Z,49.85
2023-04-24T07:47:44.938Z,49.77
2023-04-24T07:48:41.700Z,48.17
2023-04-24T07:49:38.465Z,47.39
2023-04-24T07:50:35.869Z,47.60
2023-04-24T07:51:35.677Z,48.78
2023-04-24T07:52:32.338Z,50.09
2023-04-24T07:53:28.953Z,49.98
2023-04-24T07:54:25.656Z,48.92
2023-04-24T07:55:24.756Z,49.70
2023-04-24T07:56:23.499Z,49.99
2023-04-24T07:57:20.114Z,50.57
2023-04-24T07:58:16.697Z,49.60
2023-04-24T07:59:13.331Z,49.44
2023-04-24T08:00:10.511Z,47.93
2023-04-24T08:01:07.752Z,49.65
2023-04-24T08:02:04.515Z,50.35
2023-04-24T08:03:01.502Z,50.01
2023-04-24T08:03:58.455Z,49.38
2023-04-24T08:04:55.778Z,49.28
2023-04-24T08:05:52.718Z,49.35
2023-04-24T08:06:49.468Z,48.88
2023-04-24T08:07:49.646Z,47.85
2023-04-24T08:08:46.255Z,48.89
2023-04-24T08:09:43.054Z,49.41
2023-04-24T08:10:40.088Z,49.13
2023-04-24T08:11:36.672Z,48.07
2023-04-24T08:12:33.348Z,47.73
2023-04-24T08:13:30.090Z,47.26
2023-04-24T08:14:26.835Z,46.72
2023-04-24T08:15:23.464Z,48.17
2023-04-24T08:16:20.221Z,48.43
2023-04-24T08:17:18.437Z,47.95
2023-04-24T08:18:16.764Z,47.52
2023-04-24T08:19:13.530Z,47.43
2023-04-24T08:20:14.670Z,46.07
2023-04-24T08:21:12.317Z,46.83
2023-04-24T08:22:08.953Z,47.23
2023-04-24T08:23:05.819Z,47.84
2023-04-24T08:24:06.130Z,48.25
2023-04-24T08:25:03.100Z,46.67
2023-04-24T08:25:59.859Z,46.81
2023-04-24T08:26:58.954Z,47.12
2023-04-24T08:27:55.771Z,47.77
2023-04-24T08:28:53.046Z,47.39
2023-04-24T08:29:51.107Z,47.10
2023-04-24T08:30:48.816Z,47.88
2023-04-24T08:31:45.471Z,45.95
2023-04-24T08:32:42.683Z,47.01
2023-04-24T08:33:39.438Z,46.27
2023-04-24T08:34:36.092Z,47.20
2023-04-24T08:35:32.698Z,46.98
2023-04-24T08:36:43.435Z,47.37
2023-04-24T08:37:43.121Z,46.53
2023-04-24T08:38:41.525Z,48.00
2023-04-24T08:39:39.310Z,48.43
2023-04-24T08:40:36.097Z,48.15
2023-04-24T08:41:34.029Z,47.63
2023-04-24T08:42:34.392Z,47.36
2023-04-24T08:43:33.268Z,46.43
2023-04-24T08:44:29.982Z,46.10
2023-04-24T08:45:27.107Z,47.97
2023-04-24T08:46:24.018Z,47.63
2023-04-24T08:47:21.612Z,46.61
2023-04-24T08:48:29.783Z,47.48
2023-04-24T08:49:31.666Z,46.87
2023-04-24T08:50:30.801Z,48.42
2023-04-24T08:51:27.642Z,46.78
2023-04-24T08:52:24.529Z,47.50
2023-04-24T08:53:21.162Z,46.31
2023-04-24T08:54:19.149Z,47.58
2023-04-24T08:55:17.832Z,46.21
2023-04-24T08:56:14.586Z,45.84
2023-04-24T08:57:12.645Z,44.62
2023-04-24T08:58:09.513Z,45.20
2023-04-24T08:59:07.549Z,46.91
2023-04-24T09:00:05.740Z,46.50
2023-04-24T09:01:03.091Z,45.66
2023-04-24T09:02:00.618Z,44.54
2023-04-24T09:02:58.683Z,44.95
2023-04-24T09:03:57.296Z,46.84
2023-04-24T09:04:54.802Z,45.65
2023-04-24T09:05:53.473Z,45.13
2023-04-24T09:06:50.972Z,43.00
2023-04-24T09:07:54.340Z,44.33
2023-04-24T09:08:55.158Z,44.26
2023-04-24T09:09:52.659Z,44.59
2023-04-24T09:10:51.174Z,47.03
2023-04-24T09:11:48.083Z,47.04
2023-04-24T09:12:45.437Z,47.31
2023-04-24T09:13:42.922Z,45.92
2023-04-24T09:14:43.669Z,46.33
2023-04-24T09:15:41.536Z,46.80
2023-04-24T09:16:38.382Z,46.52
2023-04-24T09:17:36.538Z,46.90
2023-04-24T09:18:33.865Z,45.45
2023-04-24T09:19:30.697Z,46.10
2023-04-24T09:20:27.305Z,45.04
2023-04-24T09:21:24.348Z,45.70
2023-04-24T09:22:21.424Z,46.58
2023-04-24T09:23:21.137Z,46.76
2023-04-24T09:24:21.455Z,46.66
2023-04-24T09:25:18.237Z,44.53
2023-04-24T09:26:15.973Z,44.64
2023-04-24T09:27:17.624Z,43.58
2023-04-24T09:28:17.185Z,44.65
2023-04-24T09:29:17.987Z,44.64
2023-04-24T09:30:15.559Z,45.48
2023-04-24T09:31:19.522Z,46.69
2023-04-24T09:32:22.958Z,45.17
2023-04-24T09:33:19.980Z,45.25
2023-04-24T09:34:23.720Z,45.90
2023-04-24T09:35:20.860Z,45.15
2023-04-24T09:36:19.012Z,43.70
2023-04-24T09:37:30.307Z,44.55
2023-04-24T09:38:37.903Z,43.66
2023-04-24T09:39:34.564Z,42.38
2023-04-24T09:40:31.148Z,44.33
2023-04-24T09:41:29.640Z,44.02
2023-04-24T09:42:30.433Z,43.29
2023-04-24T09:43:27.927Z,43.93
2023-04-24T09:44:27.157Z,43.04
2023-04-24T09:45:28.484Z,42.88
2023-04-24T09:46:35.257Z,44.04
2023-04-24T09:47:39.139Z,42.75
2023-04-24T09:48:37.685Z,43.95
2023-04-24T09:49:36.036Z,44.71
2023-04-24T09:50:33.351Z,44.97
2023-04-24T09:51:37.768Z,46.41
2023-04-24T09:52:34.352Z,45.17
2023-04-24T09:53:32.083Z,44.76
2023-04-24T09:54:28.705Z,44.13
2023-04-24T09:55:26.401Z,44.59
2023-04-24T09:56:23.829Z,44.14
2023-04-24T09:57:20.463Z,41.70
2023-04-24T09:58:17.168Z,42.28
2023-04-24T09:59:15.154Z,43.65
2023-04-24T10:00:12.672Z,43.82
2023-04-24T10:01:09.371Z,44.47
2023-04-24T10:02:19.103Z,43.79
2023-04-24T10:03:16.077Z,43.44
2023-04-24T10:04:33.023Z,42.47
2023-04-24T10:05:29.793Z,43.04
2023-04-24T10:06:35.406Z,41.04
2023-04-24T10:07:34.434Z,41.05
2023-04-24T10:08:39.977Z,41.85
2023-04-24T10:09:36.795Z,41.30
2023-04-24T10:10:39.430Z,40.71
2023-04-24T10:11:36.657Z,39.58
2023-04-24T10:12:33.686Z,40.38
2023-04-24T10:13:30.603Z,42.52
2023-04-24T10:14:27.363Z,40.84
2023-04-24T10:15:25.222Z,38.58
2023-04-24T10:16:23.393Z,37.99
2023-04-24T10:17:21.978Z,40.15
2023-04-24T10:18:19.132Z,41.26
2023-04-24T10:19:17.478Z,40.85
2023-04-24T10:20:14.312Z,41.44
2023-04-24T10:21:11.185Z,42.05
2023-04-24T10:22:08.980Z,40.96
2023-04-24T10:23:06.126Z,40.99
2023-04-24T10:24:05.150Z,41.97
2023-04-24T10:25:05.598Z,42.33
2023-04-24T10:26:02.839Z,40.53
2023-04-24T10:26:59.662Z,41.40
2023-04-24T10:27:59.471Z,41.68
2023-04-24T10:28:59.111Z,41.26
2023-04-24T10:29:56.210Z,43.16
2023-04-24T10:30:56.388Z,40.01
2023-04-24T10:31:53.191Z,39.35
2023-04-24T10:32:49.863Z,40.71
2023-04-24T10:33:47.158Z,40.38
2023-04-24T10:34:43.819Z,41.34
2023-04-24T10:35:50.018Z,40.56
2023-04-24T10:36:51.914Z,40.88
2023-04-24T10:37:53.237Z,40.75
2023-04-24T10:38:51.213Z,40.89
2023-04-24T10:39:52.448Z,39.77
2023-04-24T10:40:49.090Z,40.17
2023-04-24T10:41:47.489Z,39.42
2023-04-24T10:42:48.846Z,39.36
2023-04-24T10:43:45.528Z,39.06
2023-04-24T10:44:42.208Z,41.02
2023-04-24T10:45:39.855Z,40.83
2023-04-24T10:46:37.447Z,40.76
2023-04-24T10:47:43.649Z,39.01
2023-04-24T10:48:44.886Z,39.06
2023-04-24T10:49:41.738Z,38.47
2023-04-24T10:50:44.499Z,38.80
2023-04-24T10:51:53.987Z,40.12
2023-04-24T10:52:55.582Z,40.44
2023-04-24T10:53:52.612Z,39.91
2023-04-24T10:54:50.416Z,40.53
2023-04-24T10:55:48.487Z,41.37
2023-04-24T10:56:45.135Z,40.28
2023-04-24T10:58:05.088Z,42.21
2023-04-24T10:59:02.233Z,40.06
2023-04-24T11:00:21.678Z,38.33
2023-04-24T11:01:30.075Z,39.72
2023-04-24T11:02:38.151Z,40.45
2023-04-24T11:03:36.640Z,38.86
2023-04-24T11:04:37.132Z,38.07
2023-04-24T11:06:00.372Z,39.15
2023-04-24T11:06:57.036Z,39.67
2023-04-24T11:08:14.004Z,40.48
2023-04-24T11:09:14.222Z,38.94
2023-04-24T11:10:26.911Z,37.78
2023-04-24T11:11:31.746Z,36.51
2023-04-24T11:12:28.466Z,38.33
2023-04-24T11:13:27.339Z,38.97
2023-04-24T11:14:23.999Z,37.79
2023-04-24T11:15:21.039Z,37.79
2023-04-24T11:16:35.317Z,36.79
2023-04-24T11:17:34.598Z,38.05
2023-04-24T11:18:38.788Z,37.52
2023-04-24T11:19:35.488Z,38.34
2023-04-24T11:20:32.220Z,38.33
2023-04-24T11:21:43.209Z,35.65
2023-04-24T11:22:43.643Z,37.24
2023-04-24T11:23:41.897Z,38.56
2023-04-24T11:24:52.056Z,40.23
2023-04-24T11:26:18.830Z,39.50
2023-04-24T11:27:22.870Z,39.94
2023-04-24T11:28:20.240Z,39.20
2023-04-24T11:29:19.239Z,38.62
2023-04-24T11:30:20.469Z,38.55
2023-04-24T11:31:43.105Z,38.83
2023-04-24T11:32:42.446Z,39.28
2023-04-24T11:33:39.218Z,40.34
2023-04-24T11:34:35.897Z,40.38
2023-04-24T11:35:42.682Z,40.47
2023-04-24T11:36:40.300Z,41.14
2023-04-24T11:37:41.615Z,40.18
2023-04-24T11:38:38.492Z,39.10
2023-04-24T11:39:38.443Z,40.06
2023-04-24T11:40:35.123Z,38.63
2023-04-24T11:41:32.431Z,40.13
2023-04-24T11:42:30.234Z,40.25
2023-04-24T11:43:27.205Z,40.22
2023-04-24T11:44:26.027Z,41.11
2023-04-24T11:45:24.878Z,40.11
2023-04-24T11:46:29.109Z,39.44
2023-04-24T11:47:34.831Z,40.72
2023-04-24T11:48:37.370Z,42.41
2023-04-24T11:49:34.099Z,42.10
2023-04-24T11:50:31.449Z,43.38
2023-04-24T11:51:31.278Z,43.57
2023-04-24T11:52:37.696Z,43.32
2023-04-24T11:53:34.400Z,42.32
2023-04-24T11:54:31.172Z,42.06
2023-04-24T11:55:29.345Z,41.32
2023-04-24T11:56:26.268Z,42.77
2023-04-24T11:57:27.377Z,43.41
2023-04-24T11:58:24.182Z,43.69
2023-04-24T11:59:20.861Z,42.49
2023-04-24T12:00:39.423Z,41.66
2023-04-24T12:01:46.757Z,39.93
2023-04-24T12:02:43.795Z,40.45
2023-04-24T12:03:44.156Z,40.60
2023-04-24T12:04:42.544Z,38.48
2023-04-24T12:05:40.356Z,38.11
2023-04-24T12:06:37.153Z,36.98
2023-04-24T12:07:43.763Z,38.77
2023-04-24T12:08:40.583Z,37.57
2023-04-24T12:09:47.597Z,37.07
2023-04-24T12:10:44.580Z,38.39
2023-04-24T12:11:58.092Z,39.16
2023-04-24T12:12:56.835Z,38.17
2023-04-24T12:13:53.577Z,38.92
2023-04-24T12:14:53.289Z,38.59
2023-04-24T12:15:51.764Z,39.90
2023-04-24T12:16:50.050Z,39.62
2023-04-24T12:17:47.448Z,39.96
2023-04-24T12:18:46.149Z,40.97
2023-04-24T12:19:50.137Z,40.75
2023-04-24T12:20:46.772Z,41.74
2023-04-24T12:21:43.493Z,42.69
2023-04-24T12:22:57.256Z,43.54
2023-04-24T12:23:56.042Z,42.48
2023-04-24T12:25:01.738Z,43.66
2023-04-24T12:26:02.460Z,43.10
2023-04-24T12:26:59.523Z,43.96
2023-04-24T12:27:57.047Z,42.53